createdAt,value
2023-03-01T00:01:43.927Z,37.00
2023-03-01T00:04:13.795Z,44.30
2023-03-01T00:06:43.507Z,39.40
2023-03-01T00:09:10.451Z,37.30
2023-03-01T00:11:39.943Z,38.10
2023-03-01T00:14:09.669Z,38.10
2023-03-01T00:16:42.451Z,34.60
2023-03-01T00:19:18.467Z,44.20
2023-03-01T00:21:45.909Z,43.00
2023-03-01T00:24:12.800Z,33.30
2023-03-01T00:26:39.987Z,36.30
2023-03-01T00:29:07.334Z,38.80
2023-03-01T00:31:36.450Z,32.80
2023-03-01T00:34:05.542Z,39.70
2023-03-01T00:36:36.116Z,34.50
2023-03-01T00:39:12.475Z,35.20
2023-03-01T00:41:43.188Z,41.70
2023-03-01T00:44:10.961Z,39.80
2023-03-01T00:46:38.836Z,36.80
2023-03-01T00:49:05.857Z,37.00
2023-03-01T00:51:33.399Z,31.70
2023-03-01T00:54:03.276Z,33.60
2023-03-01T00:56:31.943Z,34.70
2023-03-01T00:58:59.333Z,37.00
2023-03-01T01:01:31.958Z,34.80
2023-03-01T01:04:03.034Z,34.50
2023-03-01T01:06:33.845Z,33.90
2023-03-01T01:09:01.379Z,30.20
2023-03-01T01:11:29.949Z,32.50
2023-03-01T01:13:58.385Z,36.40
2023-03-01T01:16:27.693Z,34.40
2023-03-01T01:18:55.915Z,37.10
2023-03-01T01:21:24.723Z,32.60
2023-03-01T01:23:52.704Z,35.50
2023-03-01T01:26:23.917Z,35.30
2023-03-01T01:28:51.765Z,36.10
2023-03-01T01:31:24.207Z,36.70
2023-03-01T01:33:53.027Z,39.20
2023-03-01T01:36:20.436Z,31.40
2023-03-01T01:38:47.436Z,33.90
2023-03-01T01:41:15.552Z,34.00
2023-03-01T01:43:49.959Z,31.80
2023-03-01T01:46:34.670Z,38.10
2023-03-01T01:49:13.020Z,35.20
2023-03-01T01:51:44.487Z,39.50
2023-03-01T01:54:36.134Z,40.30
2023-03-01T01:57:09.640Z,38.40
2023-03-01T01:59:38.533Z,35.50
2023-03-01T02:02:06.044Z,39.20
2023-03-01T02:04:33.702Z,38.00
2023-03-01T02:07:23.279Z,41.90
2023-03-01T02:09:53.277Z,36.30
2023-03-01T02:12:25.092Z,40.40
2023-03-01T02:14:52.198Z,43.00
2023-03-01T02:17:21.485Z,39.50
2023-03-01T02:20:09.429Z,40.90
2023-03-01T02:22:38.891Z,44.30
2023-03-01T02:25:05.869Z,39.80
2023-03-01T02:27:42.029Z,44.00
2023-03-01T02:30:12.799Z,42.30
2023-03-01T02:32:43.196Z,42.10
2023-03-01T02:35:14.918Z,41.90
2023-03-01T02:37:44.719Z,41.90
2023-03-01T02:40:17.812Z,38.00
2023-03-01T02:42:51.542Z,38.40
2023-03-01T02:45:18.906Z,45.80
2023-03-01T02:47:46.859Z,49.60
2023-03-01T02:50:31.318Z,44.50
2023-03-01T02:53:09.895Z,40.10
2023-03-01T02:55:37.491Z,43.00
2023-03-01T02:58:05.332Z,46.60
2023-03-01T03:00:47.352Z,44.50
2023-03-01T03:03:22.421Z,53.90
2023-03-01T03:05:52.631Z,47.60
2023-03-01T03:08:24.397Z,47.70
2023-03-01T03:10:51.939Z,46.80
2023-03-01T03:13:19.585Z,46.90
2023-03-01T03:15:46.605Z,45.10
2023-03-01T03:18:17.140Z,51.30
2023-03-01T03:20:45.370Z,52.00
2023-03-01T03:23:12.524Z,51.70
2023-03-01T03:25:40.152Z,47.80
2023-03-01T03:28:11.060Z,52.60
2023-03-01T03:30:40.951Z,47.70
2023-03-01T03:33:11.238Z,54.30
2023-03-01T03:38:18.044Z,50.90
2023-03-01T03:41:01.629Z,58.30
2023-03-01T03:43:30.392Z,53.90
2023-03-01T03:45:59.099Z,61.50
2023-03-01T03:48:27.871Z,57.70
2023-03-01T03:50:57.102Z,57.40
2023-03-01T03:53:27.163Z,58.90
2023-03-01T03:55:54.500Z,67.00
2023-03-01T03:58:24.215Z,62.80
2023-03-01T04:00:57.403Z,62.10
2023-03-01T04:03:27.702Z,59.10
2023-03-01T04:05:54.956Z,64.50
2023-03-01T04:08:24.632Z,64.50
2023-03-01T04:10:57.814Z,62.10
2023-03-01T04:13:26.938Z,57.10
2023-03-01T04:15:55.432Z,63.20
2023-03-01T04:18:24.990Z,67.30
2023-03-01T04:20:55.649Z,62.60
2023-03-01T04:23:23.306Z,66.80
2023-03-01T04:25:54.737Z,66.80
2023-03-01T04:28:28.597Z,59.60
2023-03-01T04:30:57.800Z,66.70
2023-03-01T04:33:25.999Z,63.20
2023-03-01T04:35:53.416Z,69.60
2023-03-01T04:38:21.732Z,65.00
2023-03-01T04:40:48.882Z,65.10
2023-03-01T04:43:16.255Z,65.60
2023-03-01T04:45:43.939Z,65.20
2023-03-01T04:48:11.052Z,65.90
2023-03-01T04:50:39.194Z,60.30
2023-03-01T04:53:06.229Z,66.10
2023-03-01T04:55:34.171Z,58.00
2023-03-01T04:58:01.182Z,62.50
2023-03-01T05:00:28.196Z,65.20
2023-03-01T05:02:57.808Z,78.10
2023-03-01T05:05:32.234Z,67.70
2023-03-01T05:08:19.557Z,58.40
2023-03-01T05:10:52.657Z,69.30
2023-03-01T05:13:22.305Z,64.00
2023-03-01T05:16:01.376Z,62.20
2023-03-01T05:18:32.320Z,62.50
2023-03-01T05:21:08.475Z,66.10
2023-03-01T05:23:39.299Z,67.70
2023-03-01T05:26:09.443Z,70.70
2023-03-01T05:28:38.480Z,61.80
2023-03-01T05:31:10.020Z,63.90
2023-03-01T05:33:38.871Z,60.20
2023-03-01T05:36:12.709Z,58.80
2023-03-01T05:38:39.774Z,61.50
2023-03-01T05:41:17.535Z,66.50
2023-03-01T05:43:48.309Z,63.10
2023-03-01T05:46:15.739Z,60.30
2023-03-01T05:48:42.766Z,68.70
2023-03-01T05:51:09.822Z,56.10
2023-03-01T05:53:38.958Z,55.30
2023-03-01T05:56:06.645Z,54.80
2023-03-01T05:58:34.107Z,65.40
2023-03-01T06:01:01.594Z,59.80
2023-03-01T06:03:28.891Z,55.70
2023-03-01T06:05:57.836Z,63.00
2023-03-01T06:08:27.215Z,48.40
2023-03-01T06:10:54.555Z,56.10
2023-03-01T06:13:23.946Z,59.30
2023-03-01T06:15:52.502Z,51.40
2023-03-01T06:18:20.216Z,55.20
2023-03-01T06:20:54.275Z,60.10
2023-03-01T06:23:30.332Z,55.40
2023-03-01T06:25:58.541Z,58.90
2023-03-01T06:28:26.932Z,63.00
2023-03-01T06:30:57.627Z,64.50
2023-03-01T06:33:25.286Z,50.20
2023-03-01T06:35:55.260Z,53.70
2023-03-01T06:38:23.387Z,47.40
2023-03-01T06:40:55.303Z,49.20
2023-03-01T06:43:23.947Z,53.70
2023-03-01T06:45:51.523Z,43.80
2023-03-01T06:48:19.284Z,51.10
2023-03-01T06:53:38.185Z,53.00
2023-03-01T06:56:05.381Z,48.30
2023-03-01T06:58:33.576Z,46.60
2023-03-01T07:01:00.979Z,47.30
2023-03-01T07:03:28.352Z,59.00
2023-03-01T07:06:04.774Z,80.60
2023-03-01T07:08:38.855Z,68.40
2023-03-01T07:11:23.055Z,50.10
2023-03-01T07:13:50.407Z,78.60
2023-03-01T07:16:20.950Z,42.90
2023-03-01T07:18:48.219Z,46.30
2023-03-01T07:21:17.088Z,49.00
2023-03-01T07:23:48.079Z,47.60
2023-03-01T07:26:21.188Z,36.80
2023-03-01T07:28:48.425Z,45.40
2023-03-01T07:31:16.101Z,56.40
2023-03-01T07:33:45.439Z,47.40
2023-03-01T07:36:12.681Z,40.00
2023-03-01T07:38:41.508Z,43.10
2023-03-01T07:41:08.852Z,51.60
2023-03-01T07:43:38.692Z,71.60
2023-03-01T07:46:06.643Z,79.20
2023-03-01T07:48:38.540Z,68.00
2023-03-01T07:51:08.142Z,76.50
2023-03-01T07:53:36.190Z,58.30
2023-03-01T07:56:35.351Z,36.40
2023-03-01T07:59:04.406Z,69.60
2023-03-01T08:01:35.839Z,45.10
2023-03-01T08:04:02.976Z,37.40
2023-03-01T08:06:30.877Z,53.00
2023-03-01T08:08:58.977Z,34.40
2023-03-01T08:11:29.784Z,85.90
2023-03-01T08:14:18.025Z,88.60
2023-03-01T08:16:50.663Z,68.10
2023-03-01T08:19:19.271Z,36.60
2023-03-01T08:21:46.289Z,38.90
2023-03-01T08:24:14.423Z,43.30
2023-03-01T08:26:42.533Z,34.80
2023-03-01T08:29:12.854Z,33.10
2023-03-01T08:31:41.302Z,34.40
2023-03-01T08:34:11.485Z,30.60
2023-03-01T08:36:42.528Z,34.80
2023-03-01T08:39:16.653Z,32.20
2023-03-01T08:41:49.463Z,29.80
2023-03-01T08:44:19.171Z,27.30
2023-03-01T08:46:48.006Z,31.10
2023-03-01T08:49:19.732Z,26.30
2023-03-01T08:51:47.860Z,36.50
2023-03-01T08:54:20.619Z,29.10
2023-03-01T08:56:50.607Z,24.40
2023-03-01T08:59:18.641Z,28.40
2023-03-01T09:01:45.638Z,26.00
2023-03-01T09:04:14.795Z,30.60
2023-03-01T09:06:42.595Z,25.30
2023-03-01T09:09:17.600Z,28.50
2023-03-01T09:11:50.570Z,27.70
2023-03-01T09:14:19.352Z,96.10
2023-03-01T09:16:47.163Z,26.30
2023-03-01T09:19:14.599Z,22.70
2023-03-01T09:21:41.729Z,15.90
2023-03-01T09:24:15.334Z,28.30
2023-03-01T09:26:46.803Z,34.20
2023-03-01T09:29:14.742Z,29.60
2023-03-01T09:31:42.454Z,18.10
2023-03-01T09:34:14.054Z,24.00
2023-03-01T09:36:40.933Z,17.30
2023-03-01T09:39:24.265Z,18.90
2023-03-01T09:42:00.233Z,16.10
2023-03-01T09:44:45.917Z,13.20
2023-03-01T09:47:19.417Z,17.70
2023-03-01T09:50:05.322Z,14.90
2023-03-01T09:52:41.658Z,18.40
2023-03-01T09:55:35.273Z,15.60
2023-03-01T09:58:40.493Z,14.00
2023-03-01T10:01:35.066Z,14.90
2023-03-01T10:04:11.530Z,13.40
2023-03-01T10:07:12.558Z,17.80
2023-03-01T10:09:46.147Z,17.20
2023-03-01T10:12:26.271Z,13.40
2023-03-01T10:15:00.440Z,20.60
2023-03-01T10:17:52.200Z,18.90
2023-03-01T10:20:31.049Z,11.40
2023-03-01T10:22:58.101Z,13.60
2023-03-01T10:25:45.194Z,16.50
2023-03-01T10:28:29.252Z,15.00
2023-03-01T10:30:58.579Z,12.30
2023-03-01T10:33:35.638Z,9.40
2023-03-01T10:36:03.226Z,18.00
2023-03-01T10:38:47.500Z,10.90
2023-03-01T10:41:17.245Z,9.10
2023-03-01T10:43:51.513Z,11.20
2023-03-01T10:46:31.803Z,9.60
2023-03-01T10:49:21.836Z,19.40
2023-03-01T10:51:52.778Z,14.70
2023-03-01T10:54:40.997Z,12.70
2023-03-01T10:57:32.966Z,9.70
2023-03-01T11:00:33.123Z,12.00
2023-03-01T11:03:00.258Z,16.00
2023-03-01T11:05:30.803Z,16.20
2023-03-01T11:08:00.198Z,16.70
2023-03-01T11:10:36.847Z,9.30
2023-03-01T11:13:07.216Z,10.00
2023-03-01T11:15:34.204Z,9.90
2023-03-01T11:18:13.424Z,9.10
2023-03-01T11:20:42.627Z,12.90
2023-03-01T11:23:13.682Z,7.90
2023-03-01T11:25:49.951Z,11.80
2023-03-01T11:28:20.007Z,9.00
2023-03-01T11:31:05.538Z,10.60
2023-03-01T11:33:48.743Z,12.90
2023-03-01T11:36:16.000Z,17.70
2023-03-01T11:38:44.180Z,10.20
2023-03-01T11:41:22.962Z,13.90
2023-03-01T11:44:28.720Z,12.70
2023-03-01T11:47:23.436Z,10.90
2023-03-01T11:50:10.992Z,14.90
2023-03-01T11:53:05.276Z,16.80
2023-03-01T11:56:23.940Z,12.50
2023-03-01T11:59:22.172Z,8.80
2023-03-01T12:01:52.432Z,11.10
2023-03-01T12:04:25.549Z,14.20
2023-03-01T12:07:14.629Z,14.30
2023-03-01T12:10:02.674Z,10.10
2023-03-01T12:12:48.474Z,13.30
2023-03-01T12:15:51.218Z,12.40
2023-03-01T12:18:40.316Z,12.50
2023-03-01T12:21:34.659Z,13.90
2023-03-01T12:24:32.033Z,18.70
2023-03-01T12:27:34.356Z,14.90
2023-03-01T12:30:44.922Z,14.00
2023-03-01T12:33:34.138Z,15.90
2023-03-01T12:36:34.277Z,13.30
2023-03-01T12:39:51.898Z,16.50
2023-03-01T12:43:06.923Z,24.10
2023-03-01T13:14:48.821Z,24.20
2023-03-01T13:17:45.816Z,23.40
2023-03-01T13:20:20.247Z,24.10
2023-03-01T13:22:54.626Z,22.60
2023-03-01T13:25:27.649Z,23.50
2023-03-01T13:28:36.930Z,23.70
2023-03-01T13:31:07.385Z,31.50
2023-03-01T13:33:47.303Z,20.00
2023-03-01T13:36:27.972Z,21.80
2023-03-01T13:38:58.622Z,23.10
2023-03-01T13:41:44.009Z,25.50
2023-03-01T13:44:55.072Z,32.00
2023-03-01T13:47:59.860Z,25.00
2023-03-01T13:50:33.794Z,23.10
2023-03-01T13:53:44.438Z,26.40
2023-03-01T13:56:22.390Z,22.30
2023-03-01T13:58:53.836Z,23.00
2023-03-01T14:01:23.138Z,23.10
2023-03-01T14:04:43.010Z,23.90
2023-03-01T14:07:21.045Z,18.70
2023-03-01T14:09:54.022Z,20.90
2023-03-01T14:12:42.853Z,21.50
2023-03-01T14:15:37.285Z,20.10
2023-03-01T14:18:43.861Z,21.10
2023-03-01T14:21:21.927Z,21.60
2023-03-01T14:23:53.482Z,20.30
2023-03-01T14:26:24.050Z,22.00
2023-03-01T14:28:51.936Z,19.80
2023-03-01T14:31:52.139Z,18.20
2023-03-01T14:34:25.434Z,22.00
2023-03-01T14:37:20.803Z,23.10
2023-03-01T14:39:49.125Z,24.80
2023-03-01T14:42:17.256Z,26.80
2023-03-01T14:44:51.830Z,23.50
2023-03-01T14:47:35.826Z,24.80
2023-03-01T14:50:31.155Z,37.50
2023-03-01T14:53:02.900Z,26.10
2023-03-01T14:55:34.249Z,25.30
2023-03-01T14:58:06.580Z,26.30
2023-03-01T15:00:37.345Z,22.50
2023-03-01T15:03:14.238Z,23.00
2023-03-01T15:05:44.214Z,25.80
2023-03-01T15:08:20.968Z,28.10
2023-03-01T15:11:04.511Z,26.80
2023-03-01T15:13:36.067Z,34.60
2023-03-01T15:16:23.660Z,25.70
2023-03-01T15:18:52.231Z,18.70
2023-03-01T15:21:25.049Z,20.90
2023-03-01T15:24:01.705Z,20.50
2023-03-01T15:26:38.416Z,36.80
2023-03-01T15:29:18.740Z,20.60
2023-03-01T15:32:06.135Z,29.90
2023-03-01T15:34:37.820Z,30.40
2023-03-01T15:37:27.890Z,34.90
2023-03-01T15:39:57.032Z,26.50
2023-03-01T15:42:30.425Z,23.90
2023-03-01T15:45:21.266Z,32.80
2023-03-01T15:48:05.506Z,45.00
2023-03-01T15:53:12.035Z,35.30
2023-03-01T15:55:39.384Z,22.40
2023-03-01T15:58:14.563Z,26.50
2023-03-01T16:00:54.492Z,26.60
2023-03-01T16:03:26.930Z,21.50
2023-03-01T16:05:54.370Z,31.10
2023-03-01T16:08:21.802Z,24.30
2023-03-01T16:10:51.584Z,32.50
2023-03-01T16:13:19.808Z,26.80
2023-03-01T16:15:47.082Z,30.20
2023-03-01T16:18:15.095Z,31.20
2023-03-01T16:20:43.544Z,28.40
2023-03-01T16:23:13.543Z,27.20
2023-03-01T16:25:41.553Z,26.00
2023-03-01T16:28:10.605Z,28.00
2023-03-01T16:30:40.244Z,28.60
2023-03-01T16:33:24.187Z,46.90
2023-03-01T16:35:54.271Z,97.70
2023-03-01T16:38:22.236Z,63.20
2023-03-01T16:40:52.023Z,30.50
2023-03-01T16:43:19.810Z,30.60
2023-03-01T16:45:47.182Z,25.10
2023-03-01T16:48:16.451Z,27.10
2023-03-01T16:50:44.203Z,25.70
2023-03-01T16:53:31.169Z,20.60
2023-03-01T16:56:04.232Z,20.40
2023-03-01T16:58:31.976Z,23.10
2023-03-01T17:01:17.436Z,22.90
2023-03-01T17:03:47.053Z,22.80
2023-03-01T17:06:18.176Z,25.20
2023-03-01T17:08:45.343Z,22.30
2023-03-01T17:11:19.143Z,22.20
2023-03-01T17:13:56.217Z,33.40
2023-03-01T17:16:24.000Z,22.10
2023-03-01T17:18:51.137Z,27.50
2023-03-01T17:21:18.656Z,27.50
2023-03-01T17:23:49.767Z,32.60
2023-03-01T17:26:19.725Z,28.90
2023-03-01T17:28:51.391Z,38.30
2023-03-01T17:31:19.750Z,64.20
2023-03-01T17:33:49.520Z,61.70
2023-03-01T17:36:16.636Z,45.80
2023-03-01T17:38:46.794Z,50.60
2023-03-01T17:41:15.617Z,44.10
2023-03-01T17:43:43.674Z,42.10
2023-03-01T17:46:11.603Z,43.20
2023-03-01T17:48:39.526Z,38.70
2023-03-01T17:51:26.517Z,37.70
2023-03-01T17:53:53.629Z,44.20
2023-03-01T17:56:21.295Z,35.50
2023-03-01T17:58:49.048Z,30.20
2023-03-01T18:01:42.105Z,31.00
2023-03-01T18:04:09.436Z,30.60
2023-03-01T18:06:40.029Z,29.60
2023-03-01T18:09:07.869Z,30.40
2023-03-01T18:11:35.838Z,19.20
2023-03-01T18:14:05.424Z,23.00
2023-03-01T18:16:33.622Z,28.40
2023-03-01T18:19:04.193Z,35.00
2023-03-01T18:21:33.633Z,25.70
2023-03-01T18:24:01.311Z,18.80
2023-03-01T18:26:28.875Z,26.10
2023-03-01T18:28:57.830Z,17.00
2023-03-01T18:31:26.600Z,19.50
2023-03-01T18:33:55.193Z,14.90
2023-03-01T18:36:28.543Z,13.20
2023-03-01T18:38:56.534Z,13.60
2023-03-01T18:41:26.485Z,14.70
2023-03-01T18:43:55.346Z,6.90
2023-03-01T18:46:23.459Z,8.00
2023-03-01T18:48:52.737Z,7.90
2023-03-01T18:51:23.429Z,7.80
2023-03-01T18:53:58.321Z,4.70
2023-03-01T18:56:25.915Z,3.50
2023-03-01T18:58:53.223Z,3.50
2023-03-01T19:01:24.825Z,3.50
2023-03-01T19:03:54.318Z,2.60
2023-03-01T19:06:22.725Z,6.30
2023-03-01T19:08:56.846Z,3.30
2023-03-01T19:11:26.854Z,4.00
2023-03-01T19:13:54.130Z,2.90
2023-03-01T19:16:27.090Z,3.60
2023-03-01T19:18:59.009Z,3.40
2023-03-01T19:21:29.100Z,10.50
2023-03-01T19:23:59.743Z,3.80
2023-03-01T19:26:28.241Z,4.10
2023-03-01T19:28:56.045Z,5.10
2023-03-01T19:31:26.444Z,4.10
2023-03-01T19:34:05.283Z,3.30
2023-03-01T19:36:36.312Z,3.90
2023-03-01T19:39:06.586Z,3.20
2023-03-01T19:41:34.143Z,4.80
2023-03-01T19:44:05.489Z,5.80
2023-03-01T19:46:33.801Z,5.80
2023-03-01T19:49:03.115Z,3.70
2023-03-01T19:51:36.041Z,9.20
2023-03-01T19:54:05.510Z,6.90
2023-03-01T19:56:33.692Z,5.60
2023-03-01T19:59:03.779Z,8.90
2023-03-01T20:01:33.835Z,11.30
2023-03-01T20:04:09.364Z,4.50
2023-03-01T20:06:38.626Z,8.30
2023-03-01T20:09:20.459Z,6.30
2023-03-01T20:11:51.168Z,9.80
2023-03-01T20:14:21.690Z,10.30
2023-03-01T20:16:51.613Z,24.30
2023-03-01T20:19:19.011Z,8.30
2023-03-01T20:21:46.316Z,4.70
2023-03-01T20:24:13.505Z,8.60
2023-03-01T20:26:41.076Z,7.50
2023-03-01T20:29:09.448Z,10.20
2023-03-01T20:31:38.119Z,9.60
2023-03-01T20:34:05.293Z,10.70
2023-03-01T20:36:34.612Z,11.30
2023-03-01T20:39:04.313Z,13.00
2023-03-01T20:41:31.565Z,9.10
2023-03-01T20:43:59.857Z,17.20
2023-03-01T20:46:31.919Z,10.20
2023-03-01T20:49:00.610Z,7.20
2023-03-01T20:51:28.340Z,7.50
2023-03-01T20:53:56.004Z,6.20
2023-03-01T20:56:24.115Z,9.70
2023-03-01T20:59:07.655Z,12.20
2023-03-01T21:01:39.499Z,13.30
2023-03-01T21:04:06.904Z,10.40
2023-03-01T21:06:36.309Z,15.60
2023-03-01T21:09:03.654Z,11.20
2023-03-01T21:11:33.449Z,8.90
2023-03-01T21:14:01.188Z,11.70
2023-03-01T21:16:28.878Z,10.20
2023-03-01T21:19:02.492Z,10.90
2023-03-01T21:21:30.776Z,28.50
2023-03-01T21:23:59.182Z,11.90
2023-03-01T21:26:27.415Z,10.90
2023-03-01T21:28:57.699Z,11.10
2023-03-01T21:31:28.061Z,14.10
2023-03-01T21:33:57.128Z,14.50
2023-03-01T21:36:28.317Z,15.30
2023-03-01T21:38:58.255Z,25.20
2023-03-01T21:41:28.178Z,44.50
2023-03-01T21:44:00.069Z,102.80
2023-03-01T21:46:30.587Z,57.70
2023-03-01T21:48:59.461Z,32.30
2023-03-01T21:51:27.954Z,18.40
2023-03-01T21:53:56.236Z,15.50
2023-03-01T21:56:27.257Z,34.10
2023-03-01T21:59:01.333Z,25.20
2023-03-01T22:01:28.912Z,26.40
2023-03-01T22:03:57.864Z,69.10
2023-03-01T22:06:33.680Z,135.80
2023-03-01T22:09:08.059Z,186.20
2023-03-01T22:11:39.116Z,140.80
2023-03-01T22:14:06.790Z,242.70
2023-03-01T22:16:36.395Z,281.70
2023-03-01T22:19:07.034Z,242.60
2023-03-01T22:21:41.474Z,193.50
2023-03-01T22:24:09.877Z,116.20
2023-03-01T22:26:40.595Z,72.80
2023-03-01T22:29:15.554Z,84.40
2023-03-01T22:31:43.346Z,66.10
2023-03-01T22:34:11.700Z,41.60
2023-03-01T22:36:39.328Z,27.80
2023-03-01T22:39:07.264Z,19.20
2023-03-01T22:41:45.054Z,14.70
2023-03-01T22:44:19.672Z,14.50
2023-03-01T22:46:51.526Z,24.40
2023-03-01T22:49:19.805Z,15.70
2023-03-01T22:51:47.911Z,17.50
2023-03-01T22:54:18.631Z,19.60
2023-03-01T22:56:49.450Z,17.40
2023-03-01T22:59:20.359Z,19.70
2023-03-01T23:01:48.296Z,17.60
2023-03-01T23:04:19.567Z,22.50
2023-03-01T23:06:49.892Z,19.20
2023-03-01T23:09:32.296Z,19.70
2023-03-01T23:12:02.303Z,14.10
2023-03-01T23:14:31.538Z,19.50
2023-03-01T23:17:02.020Z,18.00
2023-03-01T23:19:30.697Z,20.60
2023-03-01T23:21:58.471Z,13.60
2023-03-01T23:24:30.998Z,14.60
2023-03-01T23:27:00.220Z,15.00
2023-03-01T23:29:27.756Z,19.80
2023-03-01T23:31:57.105Z,15.90
2023-03-01T23:34:26.657Z,9.10
2023-03-01T23:36:54.991Z,10.60
2023-03-01T23:39:22.732Z,8.30
2023-03-01T23:41:50.359Z,9.30
2023-03-01T23:44:21.674Z,12.40
2023-03-01T23:46:50.430Z,11.20
2023-03-01T23:49:21.523Z,9.90
2023-03-01T23:51:48.896Z,8.20
2023-03-01T23:54:21.719Z,6.40
2023-03-01T23:56:49.652Z,6.00
2023-03-01T23:59:21.406Z,8.00
